Time;durP1;ratioP1;P1;durP2;ratioP2;P2;SDS_P1;SDS_P2;PMS_P1;PMS_P2;Temp;Humidity;BMP_temperature;BMP_pressure;BME280_temperature;BME280_humidity;BME280_pressure;Samples;Min_cycle;Max_cycle;Signal;HPM_P1;HPM_P2
2022/05/21 00:00:33;;;;;;;;;6.00;5.00;;;;;20.96;48.34;101767.78;2086120;28;47560;-64
2022/05/21 00:01:33;;;;;;;;;6.50;6.50;;;;;20.96;48.33;101773.19;2083127;28;47264;-61
2022/05/21 00:02:34;;;;;;;;;5.33;5.00;;;;;20.98;48.88;101771.31;2083109;28;47559;-61
2022/05/21 00:03:34;;;;;;;;;5.67;4.00;;;;;20.97;48.59;101772.25;2088037;28;48303;-62
2022/05/21 00:04:36;;;;;;;;;6.00;4.67;;;;;20.98;48.17;101771.31;2085407;28;47302;-62
2022/05/21 00:05:39;;;;;;;;;5.25;5.25;;;;;20.97;48.78;101770.44;2088006;28;48072;-62
2022/05/21 00:06:41;;;;;;;;;4.75;4.75;;;;;20.98;48.37;101768.59;2086071;28;46433;-61
2022/05/21 00:07:42;;;;;;;;;5.50;5.50;;;;;20.98;48.95;101771.31;2087397;28;47523;-64
2022/05/21 00:08:43;;;;;;;;;3.00;3.00;;;;;20.98;48.86;101765.91;2084751;28;47781;-62
2022/05/21 00:09:44;;;;;;;;;3.50;3.50;;;;;20.98;48.24;101768.59;2086380;28;47506;-63
2022/05/21 00:10:44;;;;;;;;;4.00;3.00;;;;;20.97;48.35;101766.84;2085668;28;47245;-62
2022/05/21 00:11:46;;;;;;;;;5.00;5.00;;;;;20.96;48.34;101768.69;2087108;28;48026;-62
2022/05/21 00:12:46;;;;;;;;;3.50;2.75;;;;;20.95;48.97;101764.22;2085135;28;47915;-62
2022/05/21 00:13:48;;;;;;;;;5.00;5.00;;;;;20.96;48.42;101767.78;2079880;28;47158;-61
2022/05/21 00:14:52;;;;;;;;;2.75;2.75;;;;;20.96;48.78;101759.69;2085472;28;48024;-62
2022/05/21 00:15:52;;;;;;;;;3.00;2.00;;;;;20.97;48.81;101774.94;2087822;28;47491;-62
2022/05/21 00:16:52;;;;;;;;;8.33;4.00;;;;;20.96;48.88;101763.28;2084337;28;47310;-62
2022/05/21 00:17:53;;;;;;;;;3.67;3.67;;;;;20.97;48.48;101767.72;2087968;28;47199;-62
2022/05/21 00:18:53;;;;;;;;;4.33;4.33;;;;;20.96;48.77;101765.97;2084209;28;47569;-63
2022/05/21 00:19:54;;;;;;;;;5.00;3.67;;;;;20.96;48.85;101768.69;2086915;28;48098;-62
2022/05/21 00:20:54;;;;;;;;;5.00;4.67;;;;;20.97;48.87;101759.63;2086182;28;47295;-62
2022/05/21 00:21:55;;;;;;;;;4.00;4.00;;;;;20.97;48.97;101772.25;2087998;28;47940;-62
2022/05/21 00:22:56;;;;;;;;;1.67;1.67;;;;;20.96;49.02;101759.69;2085628;28;47748;-62
2022/05/21 00:23:56;;;;;;;;;4.25;4.00;;;;;20.95;48.33;101763.34;2086077;28;47660;-63
2022/05/21 00:24:57;;;;;;;;;5.67;5.67;;;;;20.95;49.03;101766.03;2085483;28;47630;-64
2022/05/21 00:26:02;;;;;;;;;3.00;3.00;;;;;20.94;48.83;101762.47;2087237;28;47607;-63
2022/05/21 00:27:03;;;;;;;;;3.75;3.00;;;;;20.93;48.92;101763.41;2083936;28;47783;-64
2022/05/21 00:28:03;;;;;;;;;5.00;4.00;;;;;20.93;48.69;101758.00;2087997;28;47781;-64
2022/05/21 00:29:04;;;;;;;;;5.00;5.00;;;;;20.95;48.51;101768.72;2087666;28;47888;-63
2022/05/21 00:30:05;;;;;;;;;5.50;5.50;;;;;20.94;48.68;101759.75;2088005;28;47685;-63
2022/05/21 00:31:08;;;;;;;;;3.50;3.50;;;;;20.93;48.90;101776.91;2069403;28;47467;-62
2022/05/21 00:32:08;;;;;;;;;2.50;2.50;;;;;20.92;48.82;101771.59;2077874;28;48120;-64
2022/05/21 00:33:08;;;;;;;;;3.00;3.00;;;;;20.92;48.61;101776.97;2085001;28;48131;-64
2022/05/21 00:34:09;;;;;;;;;4.33;3.00;;;;;20.90;48.56;101771.66;2083232;28;47459;-64
2022/05/21 00:35:10;;;;;;;;;6.67;4.00;;;;;20.91;48.68;101775.22;2085796;28;47671;-64
2022/05/21 00:36:12;;;;;;;;;4.25;4.25;;;;;20.89;48.60;101778.00;2087828;28;48081;-63
2022/05/21 00:37:12;;;;;;;;;5.00;4.00;;;;;20.89;48.58;101775.31;2082758;28;47505;-64
2022/05/21 00:38:13;;;;;;;;;3.00;3.00;;;;;20.88;48.62;101775.38;2087664;28;47920;-64
2022/05/21 00:39:13;;;;;;;;;4.67;4.67;;;;;20.87;48.94;101774.50;2085088;28;47855;-63
2022/05/21 00:40:14;;;;;;;;;4.67;4.67;;;;;20.88;48.87;101776.25;2084979;28;47738;-63
2022/05/21 00:41:16;;;;;;;;;5.00;3.67;;;;;20.87;48.51;101774.50;2085116;28;47976;-63
2022/05/21 00:42:17;;;;;;;;;3.00;3.00;;;;;20.85;48.48;101771.03;2084112;28;47973;-61
2022/05/21 00:43:37;;;;;;;;;4.00;4.00;;;;;20.81;49.06;101774.78;2080155;28;47534;-63
2022/05/21 00:44:38;;;;;;;;;4.00;4.00;;;;;20.78;48.84;101772.25;2085171;28;47928;-62
2022/05/21 00:45:38;;;;;;;;;4.00;4.00;;;;;20.77;49.24;101770.50;2087414;28;47504;-63
2022/05/21 00:46:41;;;;;;;;;3.33;3.33;;;;;20.76;48.84;101777.72;2085638;28;47691;-63
2022/05/21 00:47:42;;;;;;;;;5.25;5.25;;;;;20.76;48.92;101772.31;2088930;28;47709;-63
2022/05/21 00:48:44;;;;;;;;;3.33;3.33;;;;;20.75;48.59;101773.28;2086022;28;47505;-63
2022/05/21 00:49:45;;;;;;;;;4.00;3.00;;;;;20.74;49.32;101774.22;2088051;28;47884;-63
2022/05/21 00:50:45;;;;;;;;;6.00;6.00;;;;;20.74;49.11;101773.34;2085778;28;48293;-63
2022/05/21 00:51:54;;;;;;;;;5.00;4.00;;;;;20.72;48.62;101770.72;2086768;28;47898;-62
2022/05/21 00:52:56;;;;;;;;;4.25;4.25;;;;;20.71;49.05;101768.97;2082388;28;47536;-62
2022/05/21 00:54:00;;;;;;;;;3.75;3.75;;;;;20.71;49.13;101774.38;2087724;28;47644;-62
2022/05/21 00:55:07;;;;;;;;;4.50;3.25;;;;;20.70;49.44;101771.72;2083170;28;48113;-63
2022/05/21 00:56:10;;;;;;;;;4.00;4.00;;;;;20.69;49.34;101778.06;2065650;28;47604;-62
2022/05/21 00:57:22;;;;;;;;;4.75;3.50;;;;;20.67;48.87;101772.75;2067696;28;47614;-63
2022/05/21 01:00:12;;;;;;;;;4.25;4.25;;;;;20.68;48.71;101774.50;2064055;28;48109;-62
2022/05/21 01:01:15;;;;;;;;;4.00;4.00;;;;;20.66;48.73;101772.81;2071063;28;48060;-63
2022/05/21 01:02:20;;;;;;;;;3.00;3.00;;;;;20.65;49.25;101776.47;2074353;28;47473;-63
2022/05/21 01:03:22;;;;;;;;;4.00;4.00;;;;;20.63;49.23;101772.97;2069302;28;48026;-63
2022/05/21 01:04:25;;;;;;;;;3.75;3.75;;;;;20.61;48.98;101774.88;2071530;28;47571;-63
2022/05/21 01:05:27;;;;;;;;;6.25;4.75;;;;;20.60;48.96;101774.00;2072696;28;47357;-62
2022/05/21 01:06:28;;;;;;;;;3.25;3.25;;;;;20.60;49.35;101770.44;2071726;28;47688;-65
2022/05/21 01:07:29;;;;;;;;;5.25;3.00;;;;;20.58;49.39;101773.16;2070324;28;47615;-61
2022/05/21 01:08:30;;;;;;;;;4.00;3.50;;;;;20.57;49.23;101768.72;2071996;28;46904;-62
2022/05/21 01:09:32;;;;;;;;;6.33;4.33;;;;;20.56;49.07;101769.66;2073891;28;47561;-62
2022/05/21 01:10:37;;;;;;;;;2.50;2.50;;;;;20.55;48.92;101766.09;2071194;28;47531;-64
2022/05/21 01:11:37;;;;;;;;;4.75;3.00;;;;;20.55;49.50;101766.09;2074427;28;47490;-64
2022/05/21 01:12:42;;;;;;;;;4.33;3.33;;;;;20.54;49.39;101768.88;2073837;28;48331;-62
2022/05/21 01:13:45;;;;;;;;;4.50;4.50;;;;;20.51;49.38;101767.19;2075200;28;47894;-63
2022/05/21 01:14:49;;;;;;;;;2.25;2.25;;;;;20.51;49.36;101766.31;2073138;28;48049;-63
2022/05/21 01:15:53;;;;;;;;;4.00;4.00;;;;;20.51;49.52;101766.31;2068803;28;47602;-63
2022/05/21 01:16:53;;;;;;;;;2.75;2.00;;;;;20.50;49.58;101764.56;2068452;28;47935;-63
2022/05/21 01:17:53;;;;;;;;;4.00;4.00;;;;;20.47;49.19;101764.72;2074574;28;47793;-64
2022/05/21 01:18:56;;;;;;;;;6.00;4.67;;;;;20.45;49.13;101764.78;2069048;28;47548;-62
2022/05/21 01:20:02;;;;;;;;;3.00;3.00;;;;;20.43;49.05;101771.19;2070461;28;47509;-63
2022/05/21 01:21:04;;;;;;;;;3.50;3.25;;;;;20.42;49.42;101772.13;2058882;28;47383;-63
2022/05/21 01:22:04;;;;;;;;;4.00;3.00;;;;;20.41;49.63;101768.53;2062037;28;48011;-61
2022/05/21 01:23:05;;;;;;;;;3.00;3.00;;;;;20.41;49.76;101770.34;2068205;28;47651;-63
2022/05/21 01:24:07;;;;;;;;;3.25;3.25;;;;;20.40;49.65;101772.19;2071520;28;47774;-63
2022/05/21 01:25:09;;;;;;;;;3.25;3.25;;;;;20.39;49.59;101767.72;2057717;28;47625;-63
2022/05/21 01:26:16;;;;;;;;;3.00;3.00;;;;;20.38;49.56;101771.38;2060813;28;48269;-65
2022/05/21 01:27:19;;;;;;;;;2.25;2.25;;;;;20.37;49.38;101769.63;2072447;28;47750;-62
2022/05/21 01:28:22;;;;;;;;;2.00;2.00;;;;;20.37;49.38;101772.31;2065765;28;47597;-60
2022/05/21 01:29:27;;;;;;;;;3.00;2.75;;;;;20.37;49.69;101768.75;2073718;28;48024;-63
2022/05/21 01:30:35;;;;;;;;;3.00;3.00;;;;;20.35;49.35;101766.13;2056201;28;49013;-62
2022/05/21 01:31:36;;;;;;;;;3.75;3.50;;;;;20.34;49.71;101767.09;2057636;28;47438;-64
2022/05/21 01:32:36;;;;;;;;;2.25;2.25;;;;;20.34;49.77;101774.28;2056352;28;47868;-63
2022/05/21 01:33:41;;;;;;;;;2.67;2.67;;;;;20.32;49.38;101766.25;2059035;28;47883;-63
2022/05/21 01:34:42;;;;;;;;;2.50;2.50;;;;;20.31;49.47;101763.63;2054460;28;47810;-63
2022/05/21 01:35:44;;;;;;;;;1.00;1.00;;;;;20.31;49.94;101771.72;2055779;28;47579;-63
2022/05/21 01:36:46;;;;;;;;;3.25;3.25;;;;;20.29;49.43;101769.97;2068213;28;47668;-62
2022/05/21 01:37:47;;;;;;;;;3.75;3.00;;;;;20.29;49.89;101771.78;2074964;28;47767;-63
2022/05/21 01:38:49;;;;;;;;;2.50;2.00;;;;;20.28;49.44;101768.22;2070264;28;48158;-63
2022/05/21 01:39:50;;;;;;;;;2.00;2.00;;;;;20.28;49.89;101768.22;2077878;28;47752;-63
2022/05/21 01:40:51;;;;;;;;;3.00;3.00;;;;;20.27;49.63;101768.28;2069994;28;47644;-62
2022/05/21 01:41:51;;;;;;;;;3.75;3.75;;;;;20.27;49.33;101768.28;2076124;28;47591;-63
2022/05/21 01:45:31;;;;;;;;;4.75;3.75;;;;;20.21;49.60;101772.16;2074423;28;47731;-63
2022/05/21 01:46:31;;;;;;;;;3.00;3.00;;;;;20.21;49.79;101779.38;2072922;28;47997;-63
2022/05/21 01:47:32;;;;;;;;;3.00;2.67;;;;;20.18;49.66;101774.97;2072274;28;47884;-64
2022/05/21 01:48:33;;;;;;;;;4.00;4.00;;;;;20.18;49.79;101769.56;2070701;28;47590;-62
2022/05/21 01:49:34;;;;;;;;;4.75;3.75;;;;;20.17;49.80;101772.34;2072126;28;45731;-63
2022/05/21 01:50:36;;;;;;;;;3.67;2.33;;;;;20.17;49.49;101766.94;2070087;28;47927;-64
2022/05/21 01:51:36;;;;;;;;;3.00;3.00;;;;;20.16;50.12;101762.50;2073142;28;46917;-64
2022/05/21 01:52:37;;;;;;;;;2.67;2.67;;;;;20.16;49.91;101768.78;2072515;28;46582;-64
2022/05/21 01:53:40;;;;;;;;;3.00;3.00;;;;;20.16;50.10;101765.19;2076469;28;46226;-63
2022/05/21 01:54:40;;;;;;;;;6.00;4.25;;;;;20.15;50.04;101768.84;2074751;28;47610;-63
2022/05/21 01:55:42;;;;;;;;;4.00;4.00;;;;;20.15;50.10;101768.84;2069647;28;47514;-64
2022/05/21 01:56:43;;;;;;;;;2.25;2.25;;;;;20.15;50.07;101763.44;2071561;28;47640;-64
2022/05/21 01:57:43;;;;;;;;;3.33;2.00;;;;;20.14;50.10;101762.56;2079001;28;47702;-64
2022/05/21 01:58:44;;;;;;;;;4.50;4.50;;;;;20.14;50.08;101762.56;2072644;28;48262;-64
2022/05/21 01:59:44;;;;;;;;;3.00;3.00;;;;;20.13;50.01;101771.59;2073955;28;48188;-64
2022/05/21 02:00:45;;;;;;;;;2.00;2.00;;;;;20.12;49.83;101771.69;2062435;28;47359;-62
2022/05/21 02:01:48;;;;;;;;;3.00;1.00;;;;;20.11;49.86;101768.13;2063740;28;47996;-60
2022/05/21 02:02:48;;;;;;;;;4.00;4.00;;;;;20.10;50.08;101760.09;2086515;28;48220;-64
2022/05/21 02:03:49;;;;;;;;;4.00;4.00;;;;;20.09;50.46;101763.75;2088897;28;47660;-61
2022/05/21 02:04:49;;;;;;;;;3.00;2.00;;;;;20.09;49.89;101763.75;2086762;28;47716;-63
2022/05/21 02:05:50;;;;;;;;;4.00;4.00;;;;;20.08;50.21;101753.91;2088621;28;47707;-63
2022/05/21 02:06:50;;;;;;;;;2.00;2.00;;;;;20.09;50.47;101751.13;2084288;28;47717;-62
2022/05/21 02:07:51;;;;;;;;;2.00;2.00;;;;;20.10;50.14;101757.41;2081541;28;48236;-63
2022/05/21 02:08:51;;;;;;;;;1.33;1.33;;;;;20.11;49.78;101754.63;2071062;28;46993;-62
2022/05/21 02:09:51;;;;;;;;;5.33;2.33;;;;;20.13;50.11;101757.25;2079553;28;48099;-61
2022/05/21 02:10:52;;;;;;;;;2.67;2.67;;;;;20.13;50.01;101760.81;2086430;28;47608;-63
2022/05/21 02:11:53;;;;;;;;;3.25;3.25;;;;;20.14;49.74;101762.56;2088465;28;48359;-62
2022/05/21 02:12:53;;;;;;;;;4.00;4.00;;;;;20.14;50.35;101757.19;2086462;28;47801;-62
2022/05/21 02:13:54;;;;;;;;;2.67;2.67;;;;;20.16;50.26;101754.41;2088980;28;47912;-62
2022/05/21 02:14:55;;;;;;;;;3.33;3.00;;;;;20.16;50.33;101755.28;2085782;28;47807;-61
2022/05/21 02:15:56;;;;;;;;;5.00;3.33;;;;;20.17;49.95;101753.47;2080977;28;47703;-62
2022/05/21 02:16:56;;;;;;;;;3.00;3.00;;;;;20.16;50.22;101757.13;2082477;28;48227;-63
2022/05/21 02:17:57;;;;;;;;;2.00;2.00;;;;;20.15;49.76;101763.44;2088037;28;47525;-63
2022/05/21 02:19:01;;;;;;;;;4.00;4.00;;;;;20.15;49.58;101755.38;2086446;28;47771;-62
2022/05/21 02:20:01;;;;;;;;;3.75;3.00;;;;;20.15;49.82;101753.53;2058550;28;47643;-62
2022/05/21 02:21:03;;;;;;;;;4.67;4.00;;;;;20.14;50.03;101753.63;2055544;28;47512;-62
2022/05/21 02:22:04;;;;;;;;;3.50;3.50;;;;;20.14;50.16;101759.00;2082329;28;47928;-63
2022/05/21 02:23:05;;;;;;;;;4.00;4.00;;;;;20.12;49.72;101755.50;2087093;28;47730;-63
2022/05/21 02:24:10;;;;;;;;;3.50;2.75;;;;;20.13;50.20;101759.97;2088502;28;47603;-64
2022/05/21 02:25:10;;;;;;;;;5.50;3.75;;;;;20.12;49.93;101760.91;2086799;28;46060;-63
2022/05/21 02:26:11;;;;;;;;;3.67;2.00;;;;;20.12;50.25;101766.28;2088443;28;47837;-65
2022/05/21 02:27:13;;;;;;;;;3.00;3.00;;;;;20.13;50.28;101771.59;2083471;28;47721;-61
2022/05/21 02:28:14;;;;;;;;;3.00;3.00;;;;;20.13;50.06;101766.22;2088601;28;47650;-64
2022/05/21 02:29:14;;;;;;;;;3.25;3.25;;;;;20.15;50.03;101768.84;2088514;28;48077;-63
2022/05/21 02:30:15;;;;;;;;;2.67;2.67;;;;;20.16;50.17;101770.59;2088540;28;47531;-62
2022/05/21 02:31:15;;;;;;;;;5.00;4.00;;;;;20.17;50.27;101767.81;2086244;28;47296;-63
2022/05/21 02:32:17;;;;;;;;;2.00;2.00;;;;;20.17;49.73;101775.03;2088117;28;47479;-61
2022/05/21 02:33:17;;;;;;;;;3.00;3.00;;;;;20.16;49.97;101766.06;2087080;28;47710;-64
2022/05/21 02:34:18;;;;;;;;;5.00;3.33;;;;;20.17;49.94;101767.81;2087659;28;47488;-63
2022/05/21 02:35:18;;;;;;;;;5.00;3.67;;;;;20.16;49.62;101765.19;2085888;28;47493;-64
2022/05/21 02:39:25;;;;;;;;;3.33;2.67;;;;;20.14;49.78;101767.97;2080762;28;47704;-63
2022/05/21 02:40:17;;;;;;;;;3.25;2.50;;;;;20.12;50.20;101769.88;2087841;28;47895;-64
2022/05/21 02:41:17;;;;;;;;;3.00;3.00;;;;;20.12;50.12;101772.56;2087055;28;47980;-64
2022/05/21 02:43:37;;;;;;;;;3.00;3.00;;;;;20.11;49.91;101759.16;2073073;28;47525;-62
2022/05/21 02:44:37;;;;;;;;;4.00;3.00;;;;;20.11;49.92;101765.41;2086003;28;47609;-64
2022/05/21 02:45:38;;;;;;;;;5.00;4.67;;;;;20.11;50.02;101773.50;2087646;28;48189;-62
2022/05/21 02:46:38;;;;;;;;;3.00;3.00;;;;;20.08;49.58;101754.78;2086878;28;47438;-64
2022/05/21 02:47:39;;;;;;;;;4.67;4.00;;;;;20.08;49.59;101764.69;2088705;28;47347;-63
2022/05/21 02:48:40;;;;;;;;;2.33;2.33;;;;;20.07;49.93;101766.47;2086527;28;47771;-62
2022/05/21 02:49:40;;;;;;;;;3.00;3.00;;;;;20.07;49.94;101763.78;2088540;28;47608;-64
2022/05/21 02:50:41;;;;;;;;;4.00;4.00;;;;;20.05;49.77;101770.19;2087078;28;46614;-64
2022/05/21 02:51:41;;;;;;;;;3.00;2.33;;;;;20.03;49.85;101767.56;2088947;28;48223;-64
2022/05/21 02:52:42;;;;;;;;;4.00;3.00;;;;;20.02;49.64;101768.50;2073521;28;47323;-64
2022/05/21 02:53:42;;;;;;;;;3.00;2.00;;;;;20.00;50.03;101765.00;2070212;28;48028;-64
2022/05/21 02:54:43;;;;;;;;;3.00;3.00;;;;;20.00;50.10;101767.72;2085720;28;47503;-64
2022/05/21 02:55:46;;;;;;;;;4.33;3.33;;;;;19.99;50.27;101760.56;2087327;28;47739;-64
2022/05/21 02:56:49;;;;;;;;;3.00;3.00;;;;;19.99;50.23;101761.44;2086399;28;46887;-64
2022/05/21 02:57:50;;;;;;;;;3.25;3.00;;;;;19.99;49.79;101761.44;2088053;28;47909;-64
2022/05/21 02:58:50;;;;;;;;;2.33;2.33;;;;;19.99;50.15;101766.84;2086507;28;47803;-64
2022/05/21 02:59:51;;;;;;;;;6.67;4.00;;;;;20.00;50.22;101765.00;2076683;28;47393;-64
2022/05/21 03:00:52;;;;;;;;;3.50;3.50;;;;;20.00;50.32;101767.72;2071190;28;47444;-64
2022/05/21 03:01:52;;;;;;;;;5.67;4.00;;;;;20.01;50.01;101769.47;2083994;28;48052;-64
2022/05/21 03:02:54;;;;;;;;;3.00;3.00;;;;;20.01;50.28;101768.59;2080099;28;47490;-61
2022/05/21 03:03:54;;;;;;;;;6.00;5.25;;;;;20.00;50.03;101773.09;2088090;28;47630;-63
2022/05/21 03:04:54;;;;;;;;;2.67;2.67;;;;;19.99;50.17;101768.66;2086121;28;47869;-64
2022/05/21 03:05:57;;;;;;;;;2.33;2.33;;;;;19.97;49.94;101768.72;2087751;28;47797;-62
2022/05/21 03:06:57;;;;;;;;;5.75;5.25;;;;;19.98;50.05;101766.91;2086246;28;47574;-63
2022/05/21 03:08:00;;;;;;;;;4.00;4.00;;;;;19.98;49.63;101769.59;2087859;28;47792;-62
2022/05/21 03:10:22;;;;;;;;;3.00;3.00;;;;;19.96;49.59;101769.66;2084626;28;47846;-64
2022/05/21 03:11:22;;;;;;;;;2.00;2.00;;;;;19.97;49.65;101767.84;2085338;28;47725;-62
2022/05/21 03:12:23;;;;;;;;;3.67;2.00;;;;;19.95;49.79;101767.94;2087212;28;47612;-62
2022/05/21 03:13:24;;;;;;;;;2.67;2.00;;;;;19.97;50.16;101767.84;2087637;28;48009;-63
2022/05/21 03:14:25;;;;;;;;;4.00;3.00;;;;;19.96;49.86;101772.38;2086767;28;47353;-62
2022/05/21 03:15:36;;;;;;;;;3.75;3.75;;;;;19.97;49.74;101774.13;2088365;28;45172;-64
2022/05/21 03:16:37;;;;;;;;;5.00;3.50;;;;;19.98;50.19;101777.69;2081839;28;47516;-62
2022/05/21 03:17:37;;;;;;;;;4.00;4.00;;;;;19.97;50.34;101776.81;2083936;28;47456;-60
2022/05/21 03:18:38;;;;;;;;;4.67;4.67;;;;;19.97;50.32;101774.13;2086232;28;47377;-62
2022/05/21 03:19:39;;;;;;;;;3.00;3.00;;;;;19.98;50.42;101775.00;2084577;28;47511;-61
2022/05/21 03:20:40;;;;;;;;;3.00;3.00;;;;;19.99;50.30;101768.66;2085654;28;47514;-63
2022/05/21 03:21:41;;;;;;;;;3.00;3.00;;;;;20.01;50.32;101771.28;2086172;28;47314;-63
2022/05/21 03:22:41;;;;;;;;;3.67;3.67;;;;;20.02;50.51;101763.13;2086249;28;46850;-63
2022/05/21 03:23:42;;;;;;;;;3.67;2.67;;;;;20.03;50.15;101767.56;2088121;28;47975;-63
2022/05/21 03:24:43;;;;;;;;;5.00;5.00;;;;;20.05;50.50;101765.69;2085149;28;47138;-63
2022/05/21 03:25:44;;;;;;;;;3.25;3.25;;;;;20.06;50.52;101767.44;2086809;28;45187;-62
2022/05/21 03:26:45;;;;;;;;;3.67;3.67;;;;;20.07;50.27;101768.28;2086966;28;47977;-63
2022/05/21 03:27:45;;;;;;;;;4.25;4.25;;;;;20.10;50.74;101765.50;2087871;28;47478;-63
2022/05/21 03:28:45;;;;;;;;;5.67;5.67;;;;;20.10;50.14;101766.38;2086708;28;47718;-61
2022/05/21 03:29:46;;;;;;;;;6.33;4.33;;;;;20.11;50.41;101775.31;2088072;28;47498;-63
2022/05/21 03:30:47;;;;;;;;;5.00;5.00;;;;;20.11;50.06;101769.94;2087303;28;47531;-63
2022/05/21 03:31:47;;;;;;;;;3.00;3.00;;;;;20.12;49.96;101769.88;2087390;28;47719;-63
2022/05/21 03:32:48;;;;;;;;;5.00;4.00;;;;;20.12;50.50;101769.88;2086200;28;48033;-61
2022/05/21 03:33:48;;;;;;;;;4.67;4.67;;;;;20.13;49.72;101774.31;2085381;28;47623;-63
2022/05/21 03:34:49;;;;;;;;;3.67;3.67;;;;;20.12;50.05;101772.56;2084999;28;48007;-62
2022/05/21 03:35:49;;;;;;;;;2.00;2.00;;;;;20.13;49.85;101770.72;2087358;28;48106;-63
2022/05/21 03:36:49;;;;;;;;;5.33;3.00;;;;;20.12;49.89;101769.88;2084944;28;47574;-62
2022/05/21 03:37:51;;;;;;;;;4.67;3.67;;;;;20.12;50.30;101769.00;2088193;28;47550;-59
2022/05/21 03:38:51;;;;;;;;;3.00;2.00;;;;;20.13;49.74;101771.59;2086694;28;47596;-62
2022/05/21 03:39:52;;;;;;;;;3.00;3.00;;;;;20.13;50.25;101768.03;2070402;28;47537;-62
2022/05/21 03:40:53;;;;;;;;;3.33;3.33;;;;;20.13;50.16;101768.03;2062268;28;47548;-63
2022/05/21 03:41:54;;;;;;;;;4.00;4.00;;;;;20.14;50.04;101769.78;2083685;28;47775;-63
2022/05/21 03:42:54;;;;;;;;;4.75;4.00;;;;;20.13;49.81;101768.91;2086000;28;47426;-62
2022/05/21 03:43:55;;;;;;;;;5.00;5.00;;;;;20.13;50.02;101763.53;2087372;28;46991;-62
2022/05/21 03:44:55;;;;;;;;;4.00;3.00;;;;;20.13;49.93;101766.22;2084867;28;46375;-63
2022/05/21 03:45:56;;;;;;;;;3.00;3.00;;;;;20.12;49.78;101767.16;2088298;28;47900;-63
2022/05/21 03:46:58;;;;;;;;;4.67;4.67;;;;;20.14;50.27;101775.19;2082138;28;47447;-63
2022/05/21 03:47:59;;;;;;;;;4.75;4.75;;;;;20.13;50.38;101777.00;2089433;28;47943;-62
2022/05/21 03:48:59;;;;;;;;;3.67;3.00;;;;;20.13;50.25;101770.72;2085975;28;48187;-63
2022/05/21 03:50:00;;;;;;;;;6.00;6.00;;;;;20.12;49.94;101774.38;2086855;28;47337;-62
2022/05/21 03:51:00;;;;;;;;;5.00;5.00;;;;;20.11;50.08;101773.50;2085033;28;47793;-62
2022/05/21 03:52:01;;;;;;;;;2.67;2.67;;;;;20.12;50.13;101767.16;2088184;28;47287;-63
2022/05/21 03:53:02;;;;;;;;;2.67;2.67;;;;;20.11;50.31;101773.50;2085666;28;47411;-64
2022/05/21 03:54:02;;;;;;;;;4.75;3.00;;;;;20.12;49.98;101774.38;2088363;28;47540;-63
2022/05/21 03:55:03;;;;;;;;;4.33;3.00;;;;;20.11;50.40;101768.13;2086231;28;47595;-63
2022/05/21 03:56:05;;;;;;;;;4.00;3.75;;;;;20.13;50.21;101771.59;2088150;28;47831;-64
2022/05/21 03:57:06;;;;;;;;;4.00;4.00;;;;;20.12;50.09;101775.25;2086332;28;48283;-60
2022/05/21 03:58:07;;;;;;;;;3.00;2.33;;;;;20.13;50.38;101777.00;2080161;28;47242;-63
2022/05/21 03:59:07;;;;;;;;;3.00;3.00;;;;;20.12;50.27;101772.56;2078967;28;47358;-62
2022/05/21 04:00:11;;;;;;;;;4.00;4.00;;;;;20.14;50.60;101777.88;2087652;28;47125;-60
2022/05/21 04:01:11;;;;;;;;;3.75;2.25;;;;;20.14;50.29;101777.88;2084625;28;48279;-63
2022/05/21 04:02:12;;;;;;;;;6.00;5.33;;;;;20.13;50.35;101777.00;2088040;28;47580;-63
2022/05/21 04:03:12;;;;;;;;;5.00;5.00;;;;;20.14;50.05;101781.44;2085723;28;47607;-63
2022/05/21 04:04:12;;;;;;;;;4.67;4.67;;;;;20.14;49.97;101783.25;2088000;28;47221;-63
2022/05/21 04:05:15;;;;;;;;;3.00;3.00;;;;;20.14;50.45;101780.56;2071297;28;47779;-62
2022/05/21 04:06:15;;;;;;;;;3.00;3.00;;;;;20.13;50.08;101776.13;2078803;28;47220;-62
2022/05/21 04:07:16;;;;;;;;;4.00;4.00;;;;;20.12;49.91;101777.94;2086390;28;47686;-61
2022/05/21 04:08:17;;;;;;;;;3.33;3.33;;;;;20.13;49.63;101781.50;2087708;28;47441;-60
2022/05/21 04:09:18;;;;;;;;;2.75;2.75;;;;;20.11;49.70;101778.91;2084777;28;47579;-60
2022/05/21 04:10:19;;;;;;;;;4.67;4.00;;;;;20.09;50.03;101780.78;2087385;28;47443;-60
2022/05/21 04:11:19;;;;;;;;;4.33;3.00;;;;;20.08;49.91;101778.16;2084865;28;46131;-61
2022/05/21 04:12:19;;;;;;;;;2.67;2.67;;;;;20.07;49.74;101777.25;2086749;28;47645;-63
2022/05/21 04:13:20;;;;;;;;;2.00;2.00;;;;;20.08;49.05;101780.84;2086284;28;47348;-64
2022/05/21 04:14:21;;;;;;;;;2.67;2.67;;;;;20.07;49.36;101779.94;2086670;28;47694;-62
2022/05/21 04:15:21;;;;;;;;;4.00;4.00;;;;;20.07;49.07;101774.56;2079862;28;47940;-61
2022/05/21 04:16:22;;;;;;;;;3.00;2.00;;;;;20.06;49.80;101772.81;2075477;28;47460;-61
2022/05/21 04:17:22;;;;;;;;;2.00;2.00;;;;;20.06;49.60;101780.91;2081468;28;47761;-61
2022/05/21 04:18:23;;;;;;;;;1.33;1.00;;;;;20.07;49.71;101782.66;2086949;28;47676;-61
2022/05/21 04:19:24;;;;;;;;;2.00;2.00;;;;;20.06;49.59;101782.72;2083998;28;47709;-62
2022/05/21 04:20:26;;;;;;;;;1.50;1.50;;;;;20.07;49.52;101779.06;2086406;28;47622;-62
2022/05/21 04:21:28;;;;;;;;;2.00;2.00;;;;;20.06;49.04;101783.59;2085984;28;47961;-62
2022/05/21 04:22:28;;;;;;;;;1.50;1.50;;;;;20.05;48.90;101776.44;2082675;28;47476;-63
2022/05/21 04:23:29;;;;;;;;;2.00;2.00;;;;;20.05;49.07;101779.16;2087301;28;47943;-62
2022/05/21 04:24:29;;;;;;;;;4.00;2.33;;;;;20.03;48.87;101781.03;2085675;28;47635;-62
2022/05/21 04:25:31;;;;;;;;;2.33;2.33;;;;;20.03;49.24;101774.78;2087301;28;47955;-59
2022/05/21 04:26:32;;;;;;;;;3.75;3.75;;;;;20.02;49.48;101773.91;2085595;28;48138;-63
2022/05/21 04:27:34;;;;;;;;;4.50;3.50;;;;;20.02;49.04;101783.81;2086812;28;47309;-63
2022/05/21 04:28:34;;;;;;;;;2.25;2.25;;;;;19.99;48.78;101774.03;2086575;28;45680;-64
2022/05/21 04:29:36;;;;;;;;;3.00;3.00;;;;;19.99;49.20;101779.44;2080913;28;47510;-62
2022/05/21 04:30:37;;;;;;;;;1.75;1.75;;;;;19.97;49.05;101776.81;2077844;28;48437;-61
2022/05/21 04:31:37;;;;;;;;;4.00;3.00;;;;;19.97;49.05;101784.03;2087871;28;47814;-62
2022/05/21 04:32:38;;;;;;;;;1.00;0.00;;;;;19.97;48.59;101781.31;2086133;28;47195;-62
2022/05/21 04:33:38;;;;;;;;;2.33;2.33;;;;;19.96;49.00;101785.84;2087350;28;47554;-63
2022/05/21 04:34:38;;;;;;;;;1.67;1.67;;;;;19.96;48.97;101779.56;2086215;28;48044;-63
2022/05/21 04:36:58;;;;;;;;;3.00;2.75;;;;;19.95;48.89;101784.09;2081617;28;48357;-62
2022/05/21 04:38:00;;;;;;;;;2.33;2.00;;;;;19.94;49.14;101782.31;2088079;28;47772;-64
2022/05/21 04:39:00;;;;;;;;;2.25;1.75;;;;;19.95;49.05;101789.47;2084818;28;47831;-64
2022/05/21 04:40:01;;;;;;;;;1.00;1.00;;;;;19.95;48.75;101784.09;2081488;28;48584;-64
2022/05/21 04:41:02;;;;;;;;;2.67;2.67;;;;;19.95;49.63;101778.69;2078499;28;47205;-64
2022/05/21 04:42:02;;;;;;;;;1.00;1.00;;;;;19.94;48.90;101776.91;2087311;28;47848;-63
2022/05/21 04:43:03;;;;;;;;;1.67;1.67;;;;;19.94;48.86;101776.91;2084963;28;47876;-63
2022/05/21 04:44:06;;;;;;;;;2.67;1.67;;;;;19.94;49.58;101782.31;2087736;28;47466;-64
2022/05/21 04:45:08;;;;;;;;;1.75;1.75;;;;;19.94;49.65;101786.81;2082436;28;47508;-64
2022/05/21 04:46:11;;;;;;;;;2.75;2.00;;;;;19.92;49.33;101778.81;2061839;28;47679;-64
2022/05/21 04:47:11;;;;;;;;;3.00;3.00;;;;;19.91;49.23;101785.16;2060485;28;47715;-63
2022/05/21 04:48:11;;;;;;;;;1.67;1.67;;;;;19.92;49.32;101786.03;2063600;28;47580;-64
2022/05/21 04:49:12;;;;;;;;;1.67;1.67;;;;;19.91;48.99;101789.66;2058506;28;48070;-64
2022/05/21 04:50:13;;;;;;;;;2.00;2.00;;;;;19.91;49.21;101787.84;2058081;28;48099;-64
2022/05/21 04:51:15;;;;;;;;;1.00;1.00;;;;;19.91;49.16;101782.44;2062158;28;48186;-63
2022/05/21 04:52:15;;;;;;;;;2.00;2.00;;;;;19.89;49.35;101781.66;2066005;28;47255;-62
2022/05/21 04:53:15;;;;;;;;;2.00;2.00;;;;;19.91;48.91;101781.56;2061061;28;47691;-62
2022/05/21 04:54:16;;;;;;;;;3.67;2.33;;;;;19.89;49.33;101773.56;2064234;28;47361;-60
2022/05/21 04:55:16;;;;;;;;;1.67;1.67;;;;;19.90;49.33;101775.31;2061698;28;51556;-64
2022/05/21 04:56:17;;;;;;;;;3.00;2.00;;;;;19.90;48.91;101769.06;2067469;28;47741;-60